createdAt,value
2023-02-18T00:01:59.702Z,27.37
2023-02-18T00:07:03.190Z,27.50
2023-02-18T00:12:06.484Z,25.50
2023-02-18T00:17:10.857Z,34.40
2023-02-18T00:22:13.820Z,26.13
2023-02-18T00:27:17.398Z,27.23
2023-02-18T00:32:21.812Z,30.80
2023-02-18T00:37:24.814Z,37.80
2023-02-18T00:42:29.247Z,31.37
2023-02-18T00:47:33.665Z,34.27
2023-02-18T00:52:37.333Z,35.33
2023-02-18T00:57:40.309Z,29.53
2023-02-18T01:02:44.703Z,32.70
2023-02-18T01:07:47.787Z,29.23
2023-02-18T01:12:50.894Z,27.80
2023-02-18T01:17:55.377Z,30.30
2023-02-18T01:22:58.373Z,32.73
2023-02-18T01:28:01.394Z,31.77
2023-02-18T01:33:06.259Z,29.40
2023-02-18T01:38:09.886Z,24.47
2023-02-18T01:43:14.001Z,23.63
2023-02-18T01:48:21.044Z,28.13
2023-02-18T01:53:29.213Z,30.80
2023-02-18T01:58:32.529Z,26.67
2023-02-18T02:03:36.854Z,30.83
2023-02-18T02:08:41.314Z,35.13
2023-02-18T02:14:12.083Z,34.83
2023-02-18T02:19:45.063Z,33.23
2023-02-18T02:25:20.753Z,50.03
2023-02-18T02:31:05.154Z,51.30
2023-02-18T02:36:15.117Z,45.70
2023-02-18T02:41:28.859Z,43.70
2023-02-18T02:46:39.800Z,35.00
2023-02-18T02:51:51.055Z,35.43
2023-02-18T02:57:07.331Z,43.50
2023-02-18T03:02:26.447Z,36.43
2023-02-18T03:07:47.080Z,25.90
2023-02-18T03:13:01.835Z,23.07
2023-02-18T03:18:13.356Z,16.80
2023-02-18T03:23:25.338Z,16.10
2023-02-18T03:28:32.491Z,14.73
2023-02-18T03:33:42.008Z,10.87
2023-02-18T03:38:55.219Z,11.77
2023-02-18T03:44:02.124Z,10.97
2023-02-18T03:49:05.558Z,10.13
2023-02-18T03:54:10.149Z,11.17
2023-02-18T03:59:14.412Z,10.97
2023-02-18T04:04:17.486Z,8.13
2023-02-18T04:09:21.908Z,9.17
2023-02-18T04:14:25.153Z,8.03
2023-02-18T04:19:28.262Z,7.43
2023-02-18T04:24:32.596Z,6.20
2023-02-18T04:29:35.671Z,8.53
2023-02-18T04:34:38.640Z,8.20
2023-02-18T04:39:43.445Z,6.47
2023-02-18T04:44:47.629Z,5.43
2023-02-18T04:49:50.755Z,7.87
2023-02-18T04:54:55.309Z,8.67
2023-02-18T04:59:58.354Z,6.17
2023-02-18T05:05:01.342Z,5.00
2023-02-18T05:10:07.109Z,6.00
2023-02-18T05:15:10.660Z,6.87
2023-02-18T05:20:14.175Z,6.83
2023-02-18T05:25:18.926Z,10.50
2023-02-18T05:30:22.384Z,13.53
2023-02-18T05:35:25.621Z,16.97
2023-02-18T05:40:29.975Z,15.33
2023-02-18T05:45:33.300Z,12.37
2023-02-18T05:50:36.792Z,9.50
2023-02-18T05:55:41.976Z,9.87
2023-02-18T06:00:44.959Z,11.23
2023-02-18T06:05:51.206Z,11.50
2023-02-18T06:10:56.085Z,7.53
2023-02-18T06:15:59.158Z,8.47
2023-02-18T06:21:02.326Z,8.57
2023-02-18T06:26:07.421Z,9.90
2023-02-18T06:31:10.665Z,7.33
2023-02-18T06:36:13.923Z,6.67
2023-02-18T06:41:18.271Z,8.13
2023-02-18T06:46:21.279Z,7.23
2023-02-18T06:51:24.405Z,8.77
2023-02-18T06:56:30.907Z,12.77
2023-02-18T07:01:34.128Z,15.67
2023-02-18T07:06:37.090Z,14.37
2023-02-18T07:11:41.475Z,14.07
2023-02-18T07:16:44.568Z,19.47
2023-02-18T07:21:47.719Z,19.20
2023-02-18T07:26:52.075Z,12.87
2023-02-18T07:31:55.335Z,14.53
2023-02-18T07:36:58.335Z,14.57
2023-02-18T07:42:03.510Z,17.43
2023-02-18T07:47:10.157Z,14.30
2023-02-18T07:52:13.363Z,10.80
2023-02-18T07:57:17.740Z,10.67
2023-02-18T08:02:23.584Z,13.23
2023-02-18T08:07:26.648Z,12.07
2023-02-18T08:12:30.987Z,9.03
2023-02-18T08:17:34.014Z,12.30
2023-02-18T08:22:37.055Z,11.37
2023-02-18T08:27:41.538Z,12.53
2023-02-18T08:32:44.615Z,10.17
2023-02-18T08:37:52.179Z,10.40
2023-02-18T08:42:58.165Z,8.03
2023-02-18T08:48:19.442Z,9.93
2023-02-18T08:53:23.877Z,14.20
2023-02-18T08:58:28.267Z,10.30
2023-02-18T09:03:31.359Z,9.90
2023-02-18T09:08:34.449Z,8.53
2023-02-18T09:13:38.853Z,9.07
2023-02-18T09:18:42.578Z,10.90
2023-02-18T09:23:45.792Z,8.27
2023-02-18T09:28:50.319Z,12.27
2023-02-18T09:33:55.798Z,8.43
2023-02-18T09:38:59.110Z,11.00
2023-02-18T09:44:06.051Z,9.67
2023-02-18T09:49:15.594Z,7.57
2023-02-18T09:54:21.357Z,7.90
2023-02-18T09:59:27.832Z,7.37
2023-02-18T10:04:37.897Z,5.77
2023-02-18T10:09:42.238Z,10.70
2023-02-18T10:14:50.508Z,5.73
2023-02-18T10:19:55.898Z,6.57
2023-02-18T10:25:01.486Z,8.90
2023-02-18T10:30:22.525Z,9.47
2023-02-18T10:35:32.519Z,11.27
2023-02-18T10:40:47.597Z,10.07
2023-02-18T10:45:58.051Z,6.63
2023-02-18T10:51:06.058Z,12.87
2023-02-18T10:56:10.157Z,8.97
2023-02-18T11:01:20.342Z,10.23
2023-02-18T11:06:43.131Z,7.87
2023-02-18T11:11:50.686Z,7.17
2023-02-18T11:17:10.733Z,9.70
2023-02-18T11:22:19.291Z,9.43
2023-02-18T11:27:27.330Z,12.30
2023-02-18T11:32:35.379Z,11.43
2023-02-18T11:37:39.159Z,10.73
2023-02-18T11:42:42.367Z,6.50
2023-02-18T11:48:00.869Z,12.80
2023-02-18T11:53:27.810Z,12.43
2023-02-18T11:58:40.097Z,10.57
2023-02-18T12:03:53.488Z,9.47
2023-02-18T12:09:01.990Z,12.87
2023-02-18T12:14:10.756Z,12.03
2023-02-18T12:19:37.597Z,10.17
2023-02-18T12:24:54.028Z,8.47
2023-02-18T12:30:36.853Z,10.40
2023-02-18T12:36:08.100Z,10.83
2023-02-18T12:41:24.762Z,14.23
2023-02-18T12:46:53.296Z,10.07
2023-02-18T12:52:11.841Z,14.07
2023-02-18T12:57:35.258Z,13.67
2023-02-18T13:02:55.876Z,11.43
2023-02-18T13:08:26.914Z,12.40
2023-02-18T13:13:34.579Z,12.83
2023-02-18T13:18:42.169Z,12.70
2023-02-18T13:23:53.404Z,17.10
2023-02-18T13:29:10.462Z,14.10
2023-02-18T13:34:23.987Z,8.53
2023-02-18T13:39:29.406Z,11.67
2023-02-18T13:45:20.066Z,9.30
2023-02-18T13:50:44.202Z,8.10
2023-02-18T13:55:57.070Z,8.00
2023-02-18T14:01:05.407Z,10.40
2023-02-18T14:06:16.526Z,13.40
2023-02-18T14:11:48.433Z,11.97
2023-02-18T14:17:30.978Z,10.90
2023-02-18T14:22:44.931Z,7.50
2023-02-18T14:27:53.186Z,11.70
2023-02-18T14:33:00.616Z,9.90
2023-02-18T14:38:26.320Z,11.97
2023-02-18T14:43:48.102Z,9.43
2023-02-18T14:49:04.704Z,16.83
2023-02-18T14:54:13.965Z,7.37
2023-02-18T14:59:19.857Z,10.47
2023-02-18T15:04:23.105Z,5.83
2023-02-18T15:09:26.166Z,8.30
2023-02-18T15:14:33.122Z,11.63
2023-02-18T15:19:41.204Z,8.77
2023-02-18T15:24:45.229Z,8.23
2023-02-18T15:29:53.611Z,8.00
2023-02-18T15:35:01.827Z,6.17
2023-02-18T15:40:05.299Z,10.40
2023-02-18T15:45:19.360Z,9.77
2023-02-18T15:50:25.382Z,9.83
2023-02-18T15:55:32.934Z,10.43
2023-02-18T16:00:41.802Z,14.43
2023-02-18T16:05:44.812Z,9.80
2023-02-18T16:10:51.732Z,12.00
2023-02-18T16:15:56.494Z,14.50
2023-02-18T16:21:02.791Z,9.90
2023-02-18T16:26:20.412Z,10.57
2023-02-18T16:31:24.883Z,11.37
2023-02-18T16:36:28.506Z,9.77
2023-02-18T16:41:31.559Z,12.03
2023-02-18T16:46:36.571Z,11.83
2023-02-18T16:51:41.681Z,15.07
2023-02-18T16:56:45.525Z,16.10
2023-02-18T17:01:49.923Z,11.93
2023-02-18T17:06:53.285Z,13.00
2023-02-18T17:11:57.218Z,15.03
2023-02-18T17:17:01.806Z,15.67
2023-02-18T17:22:04.756Z,15.63
2023-02-18T17:27:08.476Z,11.83
2023-02-18T17:32:15.058Z,11.37
2023-02-18T17:37:18.169Z,12.50
2023-02-18T17:42:21.739Z,16.50
2023-02-18T17:47:26.042Z,17.13
2023-02-18T17:52:31.883Z,15.47
2023-02-18T17:57:34.989Z,16.47
2023-02-18T18:02:39.448Z,17.30
2023-02-18T18:07:42.459Z,15.47
2023-02-18T18:12:46.051Z,14.97
2023-02-18T18:17:50.468Z,15.37
2023-02-18T18:22:54.684Z,13.83
2023-02-18T18:27:58.633Z,16.80
2023-02-18T18:33:04.080Z,13.10
2023-02-18T18:38:07.318Z,18.97
2023-02-18T18:43:17.236Z,19.63
2023-02-18T18:48:22.693Z,13.10
2023-02-18T18:53:28.216Z,17.80
2023-02-18T18:58:31.918Z,14.40
2023-02-18T19:03:38.371Z,15.50
2023-02-18T19:08:41.461Z,17.20
2023-02-18T19:13:45.934Z,15.97
2023-02-18T19:18:50.579Z,13.03
2023-02-18T19:23:53.744Z,15.57
2023-02-18T19:28:56.714Z,15.00
2023-02-18T19:34:01.095Z,15.67
2023-02-18T19:39:04.174Z,17.40
2023-02-18T19:44:07.242Z,18.97
2023-02-18T19:49:11.599Z,19.97
2023-02-18T19:54:14.583Z,18.17
2023-02-18T19:59:17.548Z,19.50
2023-02-18T20:04:21.908Z,25.27
2023-02-18T20:09:24.975Z,16.20
2023-02-18T20:14:29.416Z,20.97
2023-02-18T20:19:35.234Z,23.00
2023-02-18T20:24:40.227Z,21.60
2023-02-18T20:29:43.337Z,25.70
2023-02-18T20:34:47.894Z,22.00
2023-02-18T20:39:50.906Z,23.10
2023-02-18T20:44:53.941Z,26.53
2023-02-18T20:49:58.297Z,22.10
2023-02-18T20:55:01.328Z,24.03
2023-02-18T21:00:05.974Z,17.87
2023-02-18T21:05:10.464Z,15.53
2023-02-18T21:10:13.447Z,17.83
2023-02-18T21:15:16.660Z,23.07
2023-02-18T21:20:21.415Z,19.27
2023-02-18T21:25:24.387Z,16.00
2023-02-18T21:30:28.126Z,23.30
2023-02-18T21:35:35.819Z,16.17
2023-02-18T21:40:38.917Z,22.90
2023-02-18T21:45:42.019Z,20.93
2023-02-18T21:50:46.471Z,23.37
2023-02-18T21:56:02.946Z,22.67
2023-02-18T22:01:06.857Z,22.00
2023-02-18T22:06:11.694Z,17.37
2023-02-18T22:11:14.903Z,18.00
2023-02-18T22:16:17.950Z,20.47
2023-02-18T22:21:23.570Z,24.17
2023-02-18T22:26:26.612Z,21.63
2023-02-18T22:31:31.940Z,25.93
2023-02-18T22:36:36.410Z,22.57
2023-02-18T22:41:39.854Z,22.63
2023-02-18T22:46:42.989Z,29.87
2023-02-18T22:51:47.314Z,19.27
2023-02-18T22:56:50.589Z,27.87
2023-02-18T23:01:53.631Z,20.93
2023-02-18T23:06:58.019Z,17.67
2023-02-18T23:12:01.424Z,24.67
2023-02-18T23:17:14.227Z,17.43
2023-02-18T23:22:20.702Z,19.23
2023-02-18T23:27:24.517Z,15.83
2023-02-18T23:32:27.896Z,17.93
2023-02-18T23:37:49.560Z,23.03
2023-02-18T23:42:54.426Z,13.33
2023-02-18T23:47:57.548Z,16.13
2023-02-18T23:53:01.962Z,21.57
2023-02-18T23:58:05.140Z,18.80
